createdAt,value
2023-04-17T00:00:50.367Z,99.90
2023-04-17T00:05:34.563Z,99.90
2023-04-17T00:10:20.368Z,99.90
2023-04-17T00:15:05.645Z,99.90
2023-04-17T00:19:50.278Z,99.90
2023-04-17T00:24:34.427Z,99.90
2023-04-17T00:29:19.878Z,99.90
2023-04-17T00:34:04.002Z,99.90
2023-04-17T00:38:48.682Z,99.90
2023-04-17T00:43:32.875Z,99.90
2023-04-17T00:48:21.162Z,99.90
2023-04-17T00:53:05.942Z,99.90
2023-04-17T00:57:50.556Z,99.90
2023-04-17T01:02:35.214Z,99.90
2023-04-17T01:07:20.783Z,99.90
2023-04-17T01:12:21.632Z,99.90
2023-04-17T01:17:05.902Z,99.90
2023-04-17T01:21:50.099Z,99.90
2023-04-17T01:26:36.593Z,99.90
2023-04-17T01:31:21.394Z,99.90
2023-04-17T01:36:06.935Z,99.90
2023-04-17T01:40:51.540Z,99.90
2023-04-17T01:45:37.060Z,99.90
2023-04-17T01:50:21.344Z,99.90
2023-04-17T01:55:06.199Z,99.90
2023-04-17T01:59:50.273Z,99.90
2023-04-17T02:04:35.907Z,99.90
2023-04-17T02:09:20.158Z,99.90
2023-04-17T02:14:04.177Z,99.90
2023-04-17T02:18:48.534Z,99.90
2023-04-17T02:23:34.080Z,99.90
2023-04-17T02:28:18.385Z,99.90
2023-04-17T02:33:03.091Z,99.90
2023-04-17T02:37:48.384Z,99.90
2023-04-17T02:42:34.414Z,99.90
2023-04-17T02:47:22.791Z,99.90
2023-04-17T02:52:07.118Z,99.90
2023-04-17T02:56:51.343Z,99.90
2023-04-17T03:01:38.402Z,99.90
2023-04-17T03:06:24.145Z,99.90
2023-04-17T03:11:08.337Z,99.90
2023-04-17T03:15:52.589Z,99.90
2023-04-17T03:20:38.246Z,99.90
2023-04-17T03:25:22.511Z,99.90
2023-04-17T03:30:10.976Z,99.90
2023-04-17T03:34:55.362Z,99.90
2023-04-17T03:39:41.112Z,99.90
2023-04-17T03:44:25.190Z,99.90
2023-04-17T03:49:09.600Z,99.90
2023-04-17T03:53:55.762Z,99.90
2023-04-17T03:58:42.690Z,99.90
2023-04-17T04:03:30.016Z,99.90
2023-04-17T04:08:15.810Z,99.90
2023-04-17T04:13:06.973Z,99.90
2023-04-17T04:17:53.418Z,99.90
2023-04-17T04:22:38.011Z,99.90
2023-04-17T04:27:23.788Z,99.90
2023-04-17T04:32:13.684Z,99.90
2023-04-17T04:37:03.842Z,99.90
2023-04-17T04:41:57.649Z,99.90
2023-04-17T04:46:46.568Z,99.90
2023-04-17T04:51:31.911Z,99.90
2023-04-17T04:56:17.855Z,99.90
2023-04-17T05:01:06.874Z,99.90
2023-04-17T05:05:56.041Z,99.90
2023-04-17T05:10:46.051Z,99.90
2023-04-17T05:15:32.915Z,99.90
2023-04-17T05:20:17.720Z,99.90
2023-04-17T05:25:12.299Z,99.90
2023-04-17T05:29:56.720Z,99.90
2023-04-17T05:34:42.456Z,99.90
2023-04-17T05:39:27.688Z,99.90
2023-04-17T05:44:12.171Z,99.90
2023-04-17T05:48:56.866Z,99.90
2023-04-17T05:53:44.721Z,99.90
2023-04-17T05:58:28.949Z,99.90
2023-04-17T06:03:18.364Z,99.90
2023-04-17T06:08:04.509Z,99.90
2023-04-17T06:12:50.105Z,99.90
2023-04-17T06:17:34.367Z,99.90
2023-04-17T06:22:18.703Z,99.90
2023-04-17T06:27:04.844Z,99.90
2023-04-17T06:31:50.296Z,99.90
2023-04-17T06:36:38.790Z,99.90
2023-04-17T06:41:22.949Z,99.90
2023-04-17T06:46:07.361Z,99.90
2023-04-17T06:50:52.967Z,99.90
2023-04-17T06:55:37.246Z,99.90
2023-04-17T07:00:22.871Z,99.90
2023-04-17T07:05:07.990Z,99.90
2023-04-17T07:09:53.615Z,99.90
2023-04-17T07:14:38.391Z,99.90
2023-04-17T07:19:22.578Z,99.90
2023-04-17T07:24:07.401Z,99.90
2023-04-17T07:28:52.901Z,99.90
2023-04-17T07:33:40.061Z,99.90
2023-04-17T07:38:24.691Z,99.90
2023-04-17T07:43:08.759Z,99.90
2023-04-17T07:47:54.364Z,99.90
2023-04-17T07:52:38.976Z,99.90
2023-04-17T07:57:26.420Z,99.90
2023-04-17T08:02:10.789Z,99.90
2023-04-17T08:06:56.401Z,99.90
2023-04-17T08:11:53.777Z,99.90
2023-04-17T08:16:41.659Z,99.90
2023-04-17T08:21:26.809Z,99.90
2023-04-17T08:26:12.629Z,99.90
2023-04-17T08:30:57.200Z,99.90
2023-04-17T08:35:41.367Z,99.90
2023-04-17T08:40:26.354Z,99.90
2023-04-17T08:45:13.697Z,99.90
2023-04-17T08:49:58.799Z,99.90
2023-04-17T08:54:42.958Z,99.90
2023-04-17T08:59:27.145Z,99.90
2023-04-17T09:04:16.452Z,99.90
2023-04-17T09:09:02.699Z,99.90
2023-04-17T09:13:46.884Z,99.90
2023-04-17T09:18:32.485Z,99.90
2023-04-17T09:23:18.917Z,99.90
2023-04-17T09:28:12.755Z,99.90
2023-04-17T09:33:07.033Z,99.90
2023-04-17T09:37:52.699Z,99.90
2023-04-17T09:42:55.898Z,99.90
2023-04-17T09:47:41.577Z,99.90
2023-04-17T09:52:26.083Z,99.90
2023-04-17T09:57:11.904Z,99.90
2023-04-17T10:01:57.640Z,99.90
2023-04-17T10:06:42.059Z,99.90
2023-04-17T10:11:28.627Z,99.90
2023-04-17T10:16:12.796Z,99.90
2023-04-17T10:20:58.528Z,99.90
2023-04-17T10:25:42.778Z,99.90
2023-04-17T10:30:51.338Z,99.90
2023-04-17T10:35:36.836Z,99.90
2023-04-17T10:40:23.896Z,99.90
2023-04-17T10:45:21.592Z,99.90
2023-04-17T10:50:10.075Z,99.90
2023-04-17T10:55:08.039Z,99.90
2023-04-17T11:00:13.198Z,98.70
2023-04-17T11:05:08.368Z,98.00
2023-04-17T11:09:53.405Z,93.00
2023-04-17T11:14:42.609Z,86.80
2023-04-17T11:19:28.137Z,87.50
2023-04-17T11:24:12.494Z,88.70
2023-04-17T11:28:56.668Z,90.50
2023-04-17T11:33:41.268Z,91.50
2023-04-17T11:38:26.737Z,90.90
2023-04-17T11:43:11.635Z,91.00
2023-04-17T11:47:55.826Z,90.80
2023-04-17T11:52:40.051Z,91.40
2023-04-17T11:57:25.722Z,91.80
2023-04-17T12:02:11.399Z,91.40
2023-04-17T12:06:56.953Z,92.50
2023-04-17T12:11:42.286Z,92.50
2023-04-17T12:16:29.411Z,91.50
2023-04-17T12:21:14.344Z,90.60
2023-04-17T12:25:58.727Z,85.60
2023-04-17T12:30:43.077Z,79.80
2023-04-17T12:35:29.029Z,78.70
2023-04-17T12:40:13.612Z,78.90
2023-04-17T12:44:57.908Z,80.20
2023-04-17T12:49:42.308Z,80.60
2023-04-17T12:54:27.943Z,75.50
2023-04-17T12:59:12.232Z,73.20
2023-04-17T13:03:56.535Z,73.90
2023-04-17T13:08:43.131Z,72.10
2023-04-17T13:13:28.645Z,71.40
2023-04-17T13:18:14.513Z,71.50
2023-04-17T13:22:59.156Z,71.60
2023-04-17T13:27:45.557Z,73.00
2023-04-17T13:32:31.341Z,72.60
2023-04-17T13:37:15.776Z,72.70
2023-04-17T13:42:00.569Z,71.90
2023-04-17T13:46:44.755Z,70.50
2023-04-17T13:51:31.747Z,70.90
2023-04-17T13:56:16.116Z,71.30
2023-04-17T14:01:00.315Z,71.00
2023-04-17T14:05:44.809Z,70.80
2023-04-17T14:10:30.568Z,70.40
2023-04-17T14:15:14.832Z,69.80
2023-04-17T14:19:58.992Z,70.70
2023-04-17T14:24:46.150Z,71.20
2023-04-17T14:29:31.733Z,70.30
2023-04-17T14:34:15.773Z,70.50
2023-04-17T14:39:00.371Z,70.30
2023-04-17T14:43:40.554Z,70.70
2023-04-17T14:48:26.523Z,71.40
2023-04-17T14:53:11.209Z,71.30
2023-04-17T14:57:55.847Z,70.50
2023-04-17T15:02:40.088Z,71.10
2023-04-17T15:07:28.837Z,69.20
2023-04-17T15:12:13.120Z,67.20
2023-04-17T15:16:58.528Z,67.00
2023-04-17T15:21:42.817Z,68.80
2023-04-17T15:26:30.611Z,70.30
2023-04-17T15:31:18.033Z,71.30
2023-04-17T15:36:03.696Z,72.50
2023-04-17T15:40:49.812Z,72.40
2023-04-17T15:45:38.307Z,72.90
2023-04-17T15:50:26.720Z,72.00
2023-04-17T15:54:55.908Z,71.50
2023-04-17T15:59:22.960Z,71.50
2023-04-17T16:03:49.116Z,71.90
2023-04-17T16:08:16.237Z,72.30
2023-04-17T16:12:43.196Z,72.40
2023-04-17T16:17:11.230Z,72.60
2023-04-17T16:21:36.976Z,72.60
2023-04-17T16:26:04.668Z,73.10
2023-04-17T16:30:30.642Z,73.60
2023-04-17T16:34:58.000Z,74.70
2023-04-17T16:39:23.532Z,75.70
2023-04-17T16:43:47.487Z,76.90
2023-04-17T16:48:12.754Z,78.10
2023-04-17T16:52:42.796Z,78.80
2023-04-17T16:57:09.357Z,80.00
2023-04-17T17:01:33.682Z,81.40
2023-04-17T17:05:57.663Z,82.40
2023-04-17T17:10:21.577Z,83.00
2023-04-17T17:14:49.771Z,83.80
2023-04-17T17:19:16.801Z,85.00
2023-04-17T17:23:49.268Z,86.60
2023-04-17T17:28:15.596Z,87.60
2023-04-17T17:32:41.917Z,88.80
2023-04-17T17:37:06.350Z,90.00
2023-04-17T17:41:30.420Z,90.50
2023-04-17T17:45:57.488Z,90.90
2023-04-17T17:50:25.717Z,91.50
2023-04-17T17:54:49.581Z,92.30
2023-04-17T17:59:17.716Z,93.10
2023-04-17T18:03:41.715Z,93.80
2023-04-17T18:08:12.291Z,94.10
2023-04-17T18:12:36.619Z,94.50
2023-04-17T18:17:06.187Z,94.90
2023-04-17T18:21:32.542Z,95.00
2023-04-17T18:26:10.214Z,95.30
2023-04-17T18:30:34.508Z,94.60
2023-04-17T18:35:06.585Z,93.30
2023-04-17T18:39:31.887Z,92.50
2023-04-17T18:43:58.119Z,92.70
2023-04-17T18:48:22.346Z,93.30
2023-04-17T18:52:49.575Z,93.90
2023-04-17T18:57:15.194Z,94.40
2023-04-17T19:01:42.717Z,94.70
2023-04-17T19:06:10.538Z,95.00
2023-04-17T19:10:34.716Z,95.20
2023-04-17T19:14:59.117Z,95.60
2023-04-17T19:19:25.304Z,96.00
2023-04-17T19:23:49.790Z,96.50
2023-04-17T19:28:17.658Z,96.60
2023-04-17T19:32:42.605Z,96.50
2023-04-17T19:37:09.133Z,96.40
2023-04-17T19:41:35.378Z,96.40
2023-04-17T19:45:52.832Z,96.60
2023-04-17T19:50:14.264Z,97.00
2023-04-17T19:54:47.019Z,97.60
2023-04-17T19:59:05.853Z,98.30
2023-04-17T20:03:25.731Z,99.00
2023-04-17T20:07:50.199Z,99.70
2023-04-17T20:12:16.396Z,99.90
2023-04-17T20:16:40.871Z,99.90
2023-04-17T20:21:06.542Z,99.90
2023-04-17T20:25:30.731Z,99.90
2023-04-17T20:29:57.403Z,99.90
2023-04-17T20:34:24.619Z,99.90
2023-04-17T20:38:48.469Z,99.90
2023-04-17T20:43:13.152Z,99.90
2023-04-17T20:47:46.176Z,99.90
2023-04-17T20:52:20.568Z,99.90
2023-04-17T20:56:48.467Z,99.90
2023-04-17T21:01:13.328Z,99.90
2023-04-17T21:05:41.181Z,99.90
2023-04-17T21:10:05.863Z,99.90
2023-04-17T21:14:35.260Z,99.90
2023-04-17T21:18:59.665Z,99.90
2023-04-17T21:23:25.160Z,99.90
2023-04-17T21:27:53.647Z,99.90
2023-04-17T21:32:17.647Z,99.90
2023-04-17T21:36:41.694Z,99.90
2023-04-17T21:41:14.088Z,99.90
2023-04-17T21:45:38.670Z,99.90
2023-04-17T21:50:02.836Z,99.90
2023-04-17T21:54:29.136Z,99.90
2023-04-17T21:58:54.332Z,99.90
2023-04-17T22:03:18.570Z,99.90
2023-04-17T22:07:54.258Z,99.90
2023-04-17T22:12:31.698Z,99.90
2023-04-17T22:16:57.280Z,99.90
2023-04-17T22:21:21.603Z,99.90
2023-04-17T22:25:50.339Z,99.90
2023-04-17T22:30:16.752Z,99.90
2023-04-17T22:34:42.670Z,99.90
2023-04-17T22:39:07.015Z,99.90
2023-04-17T22:43:36.427Z,99.90
2023-04-17T22:48:00.710Z,99.90
2023-04-17T22:52:30.069Z,99.90
2023-04-17T22:56:59.712Z,99.90
2023-04-17T23:01:24.166Z,99.90
2023-04-17T23:05:54.295Z,99.90
2023-04-17T23:10:19.913Z,99.90
2023-04-17T23:14:46.032Z,99.90
2023-04-17T23:19:13.506Z,99.90
2023-04-17T23:23:37.338Z,99.90
2023-04-17T23:28:05.470Z,99.90
2023-04-17T23:32:29.343Z,99.90
2023-04-17T23:36:53.363Z,99.90
2023-04-17T23:41:20.379Z,99.90
2023-04-17T23:45:46.190Z,99.90
2023-04-17T23:50:17.013Z,99.90
2023-04-17T23:54:44.047Z,99.90
2023-04-17T23:59:07.777Z,99.90
